sensor_id;sensor_type;location;lat;lon;timestamp;P1;durP1;ratioP1;P2;durP2;ratioP2
20232;SDS011;37438;55.674;13.074;2023-03-01T00:04:15;34.25;;;16.70;;
20232;SDS011;37438;55.674;13.074;2023-03-01T00:07:19;25.85;;;12.38;;
20232;SDS011;37438;55.674;13.074;2023-03-01T00:10:24;30.30;;;13.75;;
20232;SDS011;37438;55.674;13.074;2023-03-01T00:13:30;27.00;;;13.65;;
20232;SDS011;37438;55.674;13.074;2023-03-01T00:16:39;36.70;;;14.57;;
20232;SDS011;37438;55.674;13.074;2023-03-01T00:19:45;35.58;;;14.82;;
20232;SDS011;37438;55.674;13.074;2023-03-01T00:22:50;31.30;;;14.67;;
20232;SDS011;37438;55.674;13.074;2023-03-01T00:25:54;31.77;;;14.65;;
20232;SDS011;37438;55.674;13.074;2023-03-01T00:28:58;18.00;;;11.40;;
20232;SDS011;37438;55.674;13.074;2023-03-01T00:32:03;34.38;;;15.48;;
20232;SDS011;37438;55.674;13.074;2023-03-01T00:35:08;32.13;;;13.95;;
20232;SDS011;37438;55.674;13.074;2023-03-01T00:38:12;29.40;;;12.27;;
20232;SDS011;37438;55.674;13.074;2023-03-01T00:41:17;28.70;;;14.90;;
20232;SDS011;37438;55.674;13.074;2023-03-01T00:44:22;33.08;;;14.38;;
20232;SDS011;37438;55.674;13.074;2023-03-01T00:47:28;26.15;;;13.90;;
20232;SDS011;37438;55.674;13.074;2023-03-01T00:50:33;31.52;;;14.00;;
20232;SDS011;37438;55.674;13.074;2023-03-01T00:53:39;33.85;;;15.57;;
20232;SDS011;37438;55.674;13.074;2023-03-01T00:56:43;26.83;;;15.15;;
20232;SDS011;37438;55.674;13.074;2023-03-01T00:59:48;33.27;;;15.13;;
20232;SDS011;37438;55.674;13.074;2023-03-01T01:02:52;23.35;;;14.07;;
20232;SDS011;37438;55.674;13.074;2023-03-01T01:09:02;24.58;;;13.35;;
20232;SDS011;37438;55.674;13.074;2023-03-01T01:12:08;31.55;;;14.75;;
20232;SDS011;37438;55.674;13.074;2023-03-01T01:15:13;19.10;;;10.55;;
20232;SDS011;37438;55.674;13.074;2023-03-01T01:18:20;28.52;;;14.48;;
20232;SDS011;37438;55.674;13.074;2023-03-01T01:21:24;32.22;;;15.23;;
20232;SDS011;37438;55.674;13.074;2023-03-01T01:24:29;25.30;;;14.48;;
20232;SDS011;37438;55.674;13.074;2023-03-01T01:27:34;26.83;;;13.57;;
20232;SDS011;37438;55.674;13.074;2023-03-01T01:30:38;24.13;;;13.93;;
20232;SDS011;37438;55.674;13.074;2023-03-01T01:33:43;25.45;;;14.07;;
20232;SDS011;37438;55.674;13.074;2023-03-01T01:36:48;33.08;;;14.35;;
20232;SDS011;37438;55.674;13.074;2023-03-01T01:39:54;27.25;;;13.23;;
20232;SDS011;37438;55.674;13.074;2023-03-01T01:42:58;24.58;;;13.00;;
20232;SDS011;37438;55.674;13.074;2023-03-01T01:46:07;24.30;;;14.73;;
20232;SDS011;37438;55.674;13.074;2023-03-01T01:49:36;31.50;;;15.23;;
20232;SDS011;37438;55.674;13.074;2023-03-01T01:52:52;30.45;;;15.65;;
20232;SDS011;37438;55.674;13.074;2023-03-01T01:55:58;32.88;;;15.43;;
20232;SDS011;37438;55.674;13.074;2023-03-01T01:59:05;29.85;;;13.63;;
20232;SDS011;37438;55.674;13.074;2023-03-01T02:02:09;26.83;;;14.03;;
20232;SDS011;37438;55.674;13.074;2023-03-01T02:08:41;23.80;;;12.70;;
20232;SDS011;37438;55.674;13.074;2023-03-01T02:11:47;30.02;;;13.77;;
20232;SDS011;37438;55.674;13.074;2023-03-01T02:14:53;23.60;;;12.95;;
20232;SDS011;37438;55.674;13.074;2023-03-01T02:17:57;25.90;;;13.93;;
20232;SDS011;37438;55.674;13.074;2023-03-01T02:24:21;26.23;;;13.85;;
20232;SDS011;37438;55.674;13.074;2023-03-01T02:27:42;27.95;;;13.80;;
20232;SDS011;37438;55.674;13.074;2023-03-01T02:31:16;32.73;;;13.80;;
20232;SDS011;37438;55.674;13.074;2023-03-01T02:34:41;26.15;;;14.05;;
20232;SDS011;37438;55.674;13.074;2023-03-01T02:37:46;26.67;;;13.48;;
20232;SDS011;37438;55.674;13.074;2023-03-01T02:40:52;30.88;;;15.25;;
20232;SDS011;37438;55.674;13.074;2023-03-01T02:44:01;26.48;;;13.73;;
20232;SDS011;37438;55.674;13.074;2023-03-01T02:47:06;21.20;;;12.15;;
20232;SDS011;37438;55.674;13.074;2023-03-01T02:50:13;32.07;;;15.83;;
20232;SDS011;37438;55.674;13.074;2023-03-01T02:53:53;29.27;;;16.90;;
20232;SDS011;37438;55.674;13.074;2023-03-01T02:57:00;24.02;;;13.73;;
20232;SDS011;37438;55.674;13.074;2023-03-01T03:00:09;35.22;;;16.25;;
20232;SDS011;37438;55.674;13.074;2023-03-01T03:06:27;28.80;;;13.30;;
20232;SDS011;37438;55.674;13.074;2023-03-01T03:09:33;33.42;;;15.18;;
20232;SDS011;37438;55.674;13.074;2023-03-01T03:12:38;32.40;;;16.23;;
20232;SDS011;37438;55.674;13.074;2023-03-01T03:15:43;32.97;;;14.38;;
20232;SDS011;37438;55.674;13.074;2023-03-01T03:18:48;31.77;;;16.30;;
20232;SDS011;37438;55.674;13.074;2023-03-01T03:21:52;30.40;;;14.77;;
20232;SDS011;37438;55.674;13.074;2023-03-01T03:24:57;38.57;;;18.33;;
20232;SDS011;37438;55.674;13.074;2023-03-01T03:28:01;22.88;;;11.15;;
20232;SDS011;37438;55.674;13.074;2023-03-01T03:31:13;24.00;;;14.15;;
20232;SDS011;37438;55.674;13.074;2023-03-01T03:34:17;20.23;;;10.45;;
20232;SDS011;37438;55.674;13.074;2023-03-01T03:37:22;40.35;;;16.88;;
20232;SDS011;37438;55.674;13.074;2023-03-01T03:40:46;127.10;;;18.15;;
20232;SDS011;37438;55.674;13.074;2023-03-01T03:43:55;47.58;;;15.80;;
20232;SDS011;37438;55.674;13.074;2023-03-01T03:47:00;63.93;;;16.40;;
20232;SDS011;37438;55.674;13.074;2023-03-01T03:50:04;45.20;;;16.40;;
20232;SDS011;37438;55.674;13.074;2023-03-01T03:53:11;41.35;;;17.75;;
20232;SDS011;37438;55.674;13.074;2023-03-01T03:56:16;36.83;;;17.95;;
20232;SDS011;37438;55.674;13.074;2023-03-01T03:59:20;31.17;;;16.37;;
20232;SDS011;37438;55.674;13.074;2023-03-01T04:02:24;53.08;;;19.52;;
20232;SDS011;37438;55.674;13.074;2023-03-01T04:05:29;54.90;;;19.70;;
20232;SDS011;37438;55.674;13.074;2023-03-01T04:08:34;196.07;;;24.85;;
20232;SDS011;37438;55.674;13.074;2023-03-01T04:11:38;232.30;;;23.33;;
20232;SDS011;37438;55.674;13.074;2023-03-01T04:14:43;205.80;;;19.47;;
20232;SDS011;37438;55.674;13.074;2023-03-01T04:17:47;55.27;;;14.83;;
20232;SDS011;37438;55.674;13.074;2023-03-01T04:20:52;50.90;;;14.85;;
20232;SDS011;37438;55.674;13.074;2023-03-01T04:23:59;42.88;;;14.30;;
20232;SDS011;37438;55.674;13.074;2023-03-01T04:27:03;77.22;;;12.63;;
20232;SDS011;37438;55.674;13.074;2023-03-01T04:30:08;34.92;;;12.63;;
20232;SDS011;37438;55.674;13.074;2023-03-01T04:33:14;82.30;;;16.27;;
20232;SDS011;37438;55.674;13.074;2023-03-01T04:36:18;80.95;;;17.92;;
20232;SDS011;37438;55.674;13.074;2023-03-01T04:39:25;49.33;;;14.45;;
20232;SDS011;37438;55.674;13.074;2023-03-01T04:42:29;44.95;;;12.23;;
20232;SDS011;37438;55.674;13.074;2023-03-01T04:45:34;39.77;;;15.20;;
20232;SDS011;37438;55.674;13.074;2023-03-01T04:48:38;36.08;;;13.20;;
20232;SDS011;37438;55.674;13.074;2023-03-01T04:51:44;32.47;;;14.07;;
20232;SDS011;37438;55.674;13.074;2023-03-01T04:54:48;32.45;;;12.95;;
20232;SDS011;37438;55.674;13.074;2023-03-01T04:57:52;31.52;;;13.98;;
20232;SDS011;37438;55.674;13.074;2023-03-01T05:00:57;51.97;;;15.75;;
20232;SDS011;37438;55.674;13.074;2023-03-01T05:04:02;64.55;;;16.10;;
20232;SDS011;37438;55.674;13.074;2023-03-01T05:07:08;91.90;;;17.60;;
20232;SDS011;37438;55.674;13.074;2023-03-01T05:10:13;129.90;;;16.70;;
20232;SDS011;37438;55.674;13.074;2023-03-01T05:13:18;58.13;;;12.88;;
20232;SDS011;37438;55.674;13.074;2023-03-01T05:16:26;184.55;;;19.52;;
20232;SDS011;37438;55.674;13.074;2023-03-01T05:19:32;102.05;;;15.60;;
20232;SDS011;37438;55.674;13.074;2023-03-01T05:22:36;76.93;;;11.18;;
20232;SDS011;37438;55.674;13.074;2023-03-01T05:25:41;116.50;;;15.48;;
20232;SDS011;37438;55.674;13.074;2023-03-01T05:28:46;111.97;;;14.27;;
20232;SDS011;37438;55.674;13.074;2023-03-01T05:31:54;122.63;;;11.93;;
20232;SDS011;37438;55.674;13.074;2023-03-01T05:34:59;114.85;;;15.75;;
20232;SDS011;37438;55.674;13.074;2023-03-01T05:38:04;67.73;;;12.97;;
20232;SDS011;37438;55.674;13.074;2023-03-01T05:41:13;214.97;;;16.90;;
20232;SDS011;37438;55.674;13.074;2023-03-01T05:44:19;166.00;;;17.88;;
20232;SDS011;37438;55.674;13.074;2023-03-01T05:50:28;132.93;;;16.83;;
20232;SDS011;37438;55.674;13.074;2023-03-01T05:53:35;49.60;;;10.80;;
20232;SDS011;37438;55.674;13.074;2023-03-01T05:56:40;82.33;;;10.07;;
20232;SDS011;37438;55.674;13.074;2023-03-01T05:59:45;60.80;;;11.03;;
20232;SDS011;37438;55.674;13.074;2023-03-01T06:02:49;92.97;;;13.35;;
20232;SDS011;37438;55.674;13.074;2023-03-01T06:05:56;70.03;;;12.93;;
20232;SDS011;37438;55.674;13.074;2023-03-01T06:09:01;105.03;;;12.45;;
20232;SDS011;37438;55.674;13.074;2023-03-01T06:12:06;55.67;;;10.23;;
20232;SDS011;37438;55.674;13.074;2023-03-01T06:15:11;106.57;;;15.20;;
20232;SDS011;37438;55.674;13.074;2023-03-01T06:18:17;121.32;;;13.85;;
20232;SDS011;37438;55.674;13.074;2023-03-01T06:21:22;128.07;;;14.27;;
20232;SDS011;37438;55.674;13.074;2023-03-01T06:24:26;60.63;;;11.03;;
20232;SDS011;37438;55.674;13.074;2023-03-01T06:27:32;109.95;;;13.48;;
20232;SDS011;37438;55.674;13.074;2023-03-01T06:30:37;112.15;;;14.65;;
20232;SDS011;37438;55.674;13.074;2023-03-01T06:33:42;82.03;;;12.30;;
20232;SDS011;37438;55.674;13.074;2023-03-01T06:36:48;83.75;;;13.05;;
20232;SDS011;37438;55.674;13.074;2023-03-01T06:39:52;79.07;;;13.30;;
20232;SDS011;37438;55.674;13.074;2023-03-01T06:42:57;57.93;;;10.27;;
20232;SDS011;37438;55.674;13.074;2023-03-01T06:46:05;52.47;;;12.52;;
20232;SDS011;37438;55.674;13.074;2023-03-01T06:49:10;58.60;;;13.88;;
20232;SDS011;37438;55.674;13.074;2023-03-01T06:52:15;74.27;;;12.73;;
20232;SDS011;37438;55.674;13.074;2023-03-01T06:55:19;70.55;;;13.38;;
20232;SDS011;37438;55.674;13.074;2023-03-01T06:58:24;67.27;;;11.67;;
20232;SDS011;37438;55.674;13.074;2023-03-01T07:01:29;62.83;;;11.50;;
20232;SDS011;37438;55.674;13.074;2023-03-01T07:07:38;85.82;;;12.70;;
20232;SDS011;37438;55.674;13.074;2023-03-01T07:10:44;65.03;;;13.38;;
20232;SDS011;37438;55.674;13.074;2023-03-01T07:13:49;80.10;;;12.73;;
20232;SDS011;37438;55.674;13.074;2023-03-01T07:16:53;40.73;;;9.80;;
20232;SDS011;37438;55.674;13.074;2023-03-01T07:19:58;94.68;;;13.43;;
20232;SDS011;37438;55.674;13.074;2023-03-01T07:23:02;76.95;;;12.68;;
20232;SDS011;37438;55.674;13.074;2023-03-01T07:26:07;47.72;;;11.50;;
20232;SDS011;37438;55.674;13.074;2023-03-01T07:29:11;53.40;;;12.50;;
20232;SDS011;37438;55.674;13.074;2023-03-01T07:32:16;59.28;;;10.80;;
20232;SDS011;37438;55.674;13.074;2023-03-01T07:35:21;73.72;;;14.00;;
20232;SDS011;37438;55.674;13.074;2023-03-01T07:41:31;102.20;;;12.55;;
20232;SDS011;37438;55.674;13.074;2023-03-01T07:44:36;114.63;;;14.95;;
20232;SDS011;37438;55.674;13.074;2023-03-01T07:47:40;98.38;;;12.43;;
20232;SDS011;37438;55.674;13.074;2023-03-01T07:50:45;111.33;;;13.40;;
20232;SDS011;37438;55.674;13.074;2023-03-01T07:53:49;111.85;;;12.88;;
20232;SDS011;37438;55.674;13.074;2023-03-01T07:56:53;92.43;;;12.02;;
20232;SDS011;37438;55.674;13.074;2023-03-01T08:00:00;329.27;;;26.60;;
20232;SDS011;37438;55.674;13.074;2023-03-01T08:03:14;196.97;;;20.03;;
20232;SDS011;37438;55.674;13.074;2023-03-01T08:06:18;67.15;;;12.68;;
20232;SDS011;37438;55.674;13.074;2023-03-01T08:09:23;55.10;;;11.45;;
20232;SDS011;37438;55.674;13.074;2023-03-01T08:15:32;58.25;;;12.82;;
20232;SDS011;37438;55.674;13.074;2023-03-01T08:18:37;82.77;;;15.00;;
20232;SDS011;37438;55.674;13.074;2023-03-01T08:21:42;80.30;;;11.95;;
20232;SDS011;37438;55.674;13.074;2023-03-01T08:24:46;234.80;;;22.33;;
20232;SDS011;37438;55.674;13.074;2023-03-01T08:27:50;177.13;;;18.50;;
20232;SDS011;37438;55.674;13.074;2023-03-01T08:30:55;55.07;;;12.67;;
20232;SDS011;37438;55.674;13.074;2023-03-01T08:34:00;44.90;;;10.57;;
20232;SDS011;37438;55.674;13.074;2023-03-01T08:37:06;45.33;;;11.25;;
20232;SDS011;37438;55.674;13.074;2023-03-01T08:40:11;30.85;;;8.82;;
20232;SDS011;37438;55.674;13.074;2023-03-01T08:43:17;33.40;;;10.82;;
20232;SDS011;37438;55.674;13.074;2023-03-01T08:46:21;33.47;;;10.03;;
20232;SDS011;37438;55.674;13.074;2023-03-01T08:49:25;23.98;;;10.27;;
20232;SDS011;37438;55.674;13.074;2023-03-01T08:52:31;25.25;;;12.70;;
20232;SDS011;37438;55.674;13.074;2023-03-01T08:55:36;27.13;;;10.65;;
20232;SDS011;37438;55.674;13.074;2023-03-01T08:58:43;20.77;;;10.57;;
20232;SDS011;37438;55.674;13.074;2023-03-01T09:01:49;17.58;;;9.65;;
20232;SDS011;37438;55.674;13.074;2023-03-01T09:04:54;23.40;;;10.82;;
20232;SDS011;37438;55.674;13.074;2023-03-01T09:07:58;21.88;;;10.18;;
20232;SDS011;37438;55.674;13.074;2023-03-01T09:11:03;12.73;;;7.55;;
20232;SDS011;37438;55.674;13.074;2023-03-01T09:14:09;15.23;;;8.35;;
20232;SDS011;37438;55.674;13.074;2023-03-01T09:17:15;16.75;;;9.43;;
20232;SDS011;37438;55.674;13.074;2023-03-01T09:20:19;13.85;;;7.97;;
20232;SDS011;37438;55.674;13.074;2023-03-01T09:23:24;10.23;;;7.27;;
20232;SDS011;37438;55.674;13.074;2023-03-01T09:26:28;8.57;;;6.17;;
20232;SDS011;37438;55.674;13.074;2023-03-01T09:29:33;8.30;;;6.22;;
20232;SDS011;37438;55.674;13.074;2023-03-01T09:32:39;11.23;;;7.13;;
20232;SDS011;37438;55.674;13.074;2023-03-01T09:35:46;7.50;;;5.63;;
20232;SDS011;37438;55.674;13.074;2023-03-01T09:38:52;5.88;;;5.28;;
20232;SDS011;37438;55.674;13.074;2023-03-01T09:42:01;7.22;;;5.88;;
20232;SDS011;37438;55.674;13.074;2023-03-01T09:45:11;6.57;;;5.20;;
20232;SDS011;37438;55.674;13.074;2023-03-01T09:48:28;9.95;;;5.80;;
20232;SDS011;37438;55.674;13.074;2023-03-01T09:51:41;6.50;;;5.38;;
20232;SDS011;37438;55.674;13.074;2023-03-01T09:54:47;7.60;;;6.03;;
20232;SDS011;37438;55.674;13.074;2023-03-01T09:57:58;9.35;;;5.10;;
20232;SDS011;37438;55.674;13.074;2023-03-01T10:11:00;5.03;;;4.53;;
20232;SDS011;37438;55.674;13.074;2023-03-01T10:14:07;6.07;;;4.95;;
20232;SDS011;37438;55.674;13.074;2023-03-01T10:17:37;7.63;;;5.53;;
20232;SDS011;37438;55.674;13.074;2023-03-01T10:21:15;4.47;;;3.90;;
20232;SDS011;37438;55.674;13.074;2023-03-01T10:24:23;5.95;;;4.40;;
20232;SDS011;37438;55.674;13.074;2023-03-01T10:30:57;4.88;;;4.20;;
20232;SDS011;37438;55.674;13.074;2023-03-01T10:34:10;4.32;;;3.92;;
20232;SDS011;37438;55.674;13.074;2023-03-01T10:37:24;5.35;;;4.50;;
20232;SDS011;37438;55.674;13.074;2023-03-01T10:40:31;6.22;;;4.72;;
20232;SDS011;37438;55.674;13.074;2023-03-01T10:43:47;6.25;;;3.97;;
20232;SDS011;37438;55.674;13.074;2023-03-01T10:46:58;5.80;;;4.20;;
20232;SDS011;37438;55.674;13.074;2023-03-01T10:50:05;6.05;;;3.97;;
20232;SDS011;37438;55.674;13.074;2023-03-01T10:53:22;6.57;;;4.10;;
20232;SDS011;37438;55.674;13.074;2023-03-01T10:56:30;11.90;;;4.95;;
20232;SDS011;37438;55.674;13.074;2023-03-01T11:00:00;23.80;;;5.20;;
20232;SDS011;37438;55.674;13.074;2023-03-01T11:03:27;6.88;;;4.32;;
20232;SDS011;37438;55.674;13.074;2023-03-01T11:06:37;7.55;;;4.93;;
20232;SDS011;37438;55.674;13.074;2023-03-01T11:09:42;10.38;;;3.90;;
20232;SDS011;37438;55.674;13.074;2023-03-01T11:12:47;5.63;;;4.13;;
20232;SDS011;37438;55.674;13.074;2023-03-01T11:16:05;12.13;;;3.35;;
20232;SDS011;37438;55.674;13.074;2023-03-01T11:19:19;11.60;;;3.42;;
20232;SDS011;37438;55.674;13.074;2023-03-01T11:22:24;5.57;;;3.85;;
20232;SDS011;37438;55.674;13.074;2023-03-01T11:25:30;5.40;;;4.07;;
20232;SDS011;37438;55.674;13.074;2023-03-01T11:28:38;11.77;;;4.85;;
20232;SDS011;37438;55.674;13.074;2023-03-01T11:31:45;11.75;;;4.65;;
20232;SDS011;37438;55.674;13.074;2023-03-01T11:35:13;7.25;;;5.90;;
20232;SDS011;37438;55.674;13.074;2023-03-01T11:38:26;16.58;;;4.90;;
20232;SDS011;37438;55.674;13.074;2023-03-01T11:41:31;6.85;;;5.18;;
20232;SDS011;37438;55.674;13.074;2023-03-01T11:44:40;7.90;;;4.88;;
20232;SDS011;37438;55.674;13.074;2023-03-01T11:47:54;6.40;;;4.57;;
20232;SDS011;37438;55.674;13.074;2023-03-01T11:51:34;5.80;;;4.28;;
20232;SDS011;37438;55.674;13.074;2023-03-01T12:01:54;5.32;;;3.92;;
20232;SDS011;37438;55.674;13.074;2023-03-01T12:18:59;2.17;;;1.83;;
20232;SDS011;37438;55.674;13.074;2023-03-01T12:25:39;3.28;;;2.13;;
20232;SDS011;37438;55.674;13.074;2023-03-01T12:28:55;2.33;;;2.00;;
20232;SDS011;37438;55.674;13.074;2023-03-01T12:32:24;3.95;;;1.98;;
20232;SDS011;37438;55.674;13.074;2023-03-01T12:50:02;1.77;;;0.85;;
20232;SDS011;37438;55.674;13.074;2023-03-01T12:53:31;2.10;;;1.33;;
20232;SDS011;37438;55.674;13.074;2023-03-01T12:56:40;2.75;;;0.80;;
20232;SDS011;37438;55.674;13.074;2023-03-01T12:59:59;2.92;;;1.48;;
20232;SDS011;37438;55.674;13.074;2023-03-01T13:06:54;2.20;;;1.10;;
20232;SDS011;37438;55.674;13.074;2023-03-01T13:13:43;3.15;;;1.25;;
20232;SDS011;37438;55.674;13.074;2023-03-01T13:16:47;2.88;;;1.90;;
20232;SDS011;37438;55.674;13.074;2023-03-01T13:19:56;1.80;;;1.40;;
20232;SDS011;37438;55.674;13.074;2023-03-01T13:23:05;1.92;;;1.50;;
20232;SDS011;37438;55.674;13.074;2023-03-01T13:26:23;3.15;;;1.98;;
20232;SDS011;37438;55.674;13.074;2023-03-01T13:29:27;6.25;;;2.75;;
20232;SDS011;37438;55.674;13.074;2023-03-01T13:32:32;2.20;;;1.48;;
20232;SDS011;37438;55.674;13.074;2023-03-01T13:35:47;2.47;;;1.70;;
20232;SDS011;37438;55.674;13.074;2023-03-01T13:38:55;4.97;;;2.08;;
20232;SDS011;37438;55.674;13.074;2023-03-01T13:42:01;1.80;;;1.38;;
20232;SDS011;37438;55.674;13.074;2023-03-01T13:45:42;2.28;;;2.13;;
20232;SDS011;37438;55.674;13.074;2023-03-01T13:48:52;1.02;;;0.90;;
20232;SDS011;37438;55.674;13.074;2023-03-01T13:52:01;3.17;;;0.80;;
20232;SDS011;37438;55.674;13.074;2023-03-01T14:02:10;5.00;;;0.43;;
20232;SDS011;37438;55.674;13.074;2023-03-01T14:05:16;1.95;;;0.50;;
20232;SDS011;37438;55.674;13.074;2023-03-01T14:08:22;1.80;;;0.40;;
20232;SDS011;37438;55.674;13.074;2023-03-01T14:11:52;3.03;;;0.60;;
20232;SDS011;37438;55.674;13.074;2023-03-01T14:21:16;4.75;;;1.10;;
20232;SDS011;37438;55.674;13.074;2023-03-01T14:24:21;1.63;;;0.70;;
20232;SDS011;37438;55.674;13.074;2023-03-01T14:27:35;2.92;;;0.40;;
20232;SDS011;37438;55.674;13.074;2023-03-01T14:30:50;0.32;;;0.30;;
20232;SDS011;37438;55.674;13.074;2023-03-01T14:33:56;1.85;;;0.90;;
20232;SDS011;37438;55.674;13.074;2023-03-01T14:37:11;1.40;;;0.40;;
20232;SDS011;37438;55.674;13.074;2023-03-01T14:40:34;1.10;;;0.40;;
20232;SDS011;37438;55.674;13.074;2023-03-01T14:43:41;1.77;;;0.80;;
20232;SDS011;37438;55.674;13.074;2023-03-01T14:46:54;3.13;;;0.60;;
20232;SDS011;37438;55.674;13.074;2023-03-01T14:53:26;2.40;;;0.70;;
20232;SDS011;37438;55.674;13.074;2023-03-01T14:56:43;9.48;;;0.63;;
20232;SDS011;37438;55.674;13.074;2023-03-01T14:59:49;3.75;;;0.65;;
20232;SDS011;37438;55.674;13.074;2023-03-01T15:02:59;1.70;;;0.57;;
20232;SDS011;37438;55.674;13.074;2023-03-01T15:06:18;3.38;;;0.55;;
20232;SDS011;37438;55.674;13.074;2023-03-01T15:09:25;2.88;;;0.70;;
20232;SDS011;37438;55.674;13.074;2023-03-01T15:15:38;0.73;;;0.70;;
20232;SDS011;37438;55.674;13.074;2023-03-01T15:18:51;1.17;;;0.60;;
20232;SDS011;37438;55.674;13.074;2023-03-01T15:22:04;3.33;;;0.70;;
20232;SDS011;37438;55.674;13.074;2023-03-01T15:25:16;3.95;;;0.68;;
20232;SDS011;37438;55.674;13.074;2023-03-01T15:28:26;0.75;;;0.75;;
20232;SDS011;37438;55.674;13.074;2023-03-01T15:31:36;3.03;;;0.57;;
20232;SDS011;37438;55.674;13.074;2023-03-01T15:34:42;1.55;;;0.73;;
20232;SDS011;37438;55.674;13.074;2023-03-01T15:37:47;4.40;;;0.88;;
20232;SDS011;37438;55.674;13.074;2023-03-01T15:40:52;0.82;;;0.60;;
20232;SDS011;37438;55.674;13.074;2023-03-01T15:44:00;2.58;;;0.50;;
20232;SDS011;37438;55.674;13.074;2023-03-01T15:50:37;1.10;;;0.32;;
20232;SDS011;37438;55.674;13.074;2023-03-01T15:53:45;5.38;;;0.55;;
20232;SDS011;37438;55.674;13.074;2023-03-01T15:56:58;1.05;;;0.50;;
20232;SDS011;37438;55.674;13.074;2023-03-01T16:03:15;3.60;;;0.45;;
20232;SDS011;37438;55.674;13.074;2023-03-01T16:06:25;6.65;;;0.70;;
20232;SDS011;37438;55.674;13.074;2023-03-01T16:09:29;1.67;;;1.25;;
20232;SDS011;37438;55.674;13.074;2023-03-01T16:15:39;4.10;;;1.65;;
20232;SDS011;37438;55.674;13.074;2023-03-01T16:18:44;2.45;;;0.40;;
20232;SDS011;37438;55.674;13.074;2023-03-01T16:21:50;4.32;;;0.40;;
20232;SDS011;37438;55.674;13.074;2023-03-01T16:27:59;4.20;;;0.80;;
20232;SDS011;37438;55.674;13.074;2023-03-01T16:31:08;2.72;;;0.47;;
20232;SDS011;37438;55.674;13.074;2023-03-01T16:34:13;1.75;;;0.80;;
20232;SDS011;37438;55.674;13.074;2023-03-01T16:37:18;6.68;;;0.50;;
20232;SDS011;37438;55.674;13.074;2023-03-01T16:40:27;5.57;;;0.57;;
20232;SDS011;37438;55.674;13.074;2023-03-01T16:43:32;0.90;;;0.35;;
20232;SDS011;37438;55.674;13.074;2023-03-01T16:46:37;6.00;;;0.55;;
20232;SDS011;37438;55.674;13.074;2023-03-01T16:49:41;3.50;;;0.68;;
20232;SDS011;37438;55.674;13.074;2023-03-01T16:52:46;4.80;;;0.50;;
20232;SDS011;37438;55.674;13.074;2023-03-01T16:55:57;2.28;;;1.35;;
20232;SDS011;37438;55.674;13.074;2023-03-01T16:59:02;1.23;;;0.30;;
20232;SDS011;37438;55.674;13.074;2023-03-01T17:02:10;1.13;;;0.43;;
20232;SDS011;37438;55.674;13.074;2023-03-01T17:05:18;3.60;;;0.50;;
20232;SDS011;37438;55.674;13.074;2023-03-01T17:08:24;4.18;;;1.42;;
20232;SDS011;37438;55.674;13.074;2023-03-01T17:11:29;1.15;;;0.57;;
20232;SDS011;37438;55.674;13.074;2023-03-01T17:14:34;1.23;;;0.60;;
20232;SDS011;37438;55.674;13.074;2023-03-01T17:17:38;0.93;;;0.32;;
20232;SDS011;37438;55.674;13.074;2023-03-01T17:20:44;2.55;;;1.15;;
20232;SDS011;37438;55.674;13.074;2023-03-01T17:23:48;4.57;;;0.90;;
20232;SDS011;37438;55.674;13.074;2023-03-01T17:26:55;4.53;;;1.02;;
20232;SDS011;37438;55.674;13.074;2023-03-01T17:29:59;1.52;;;0.90;;
20232;SDS011;37438;55.674;13.074;2023-03-01T17:33:04;6.68;;;1.40;;
20232;SDS011;37438;55.674;13.074;2023-03-01T17:36:09;2.40;;;2.20;;
20232;SDS011;37438;55.674;13.074;2023-03-01T17:39:13;7.95;;;1.92;;
20232;SDS011;37438;55.674;13.074;2023-03-01T17:42:18;2.67;;;1.20;;
20232;SDS011;37438;55.674;13.074;2023-03-01T17:45:22;2.00;;;1.23;;
20232;SDS011;37438;55.674;13.074;2023-03-01T17:48:27;3.00;;;1.15;;
20232;SDS011;37438;55.674;13.074;2023-03-01T17:51:32;3.60;;;0.75;;
20232;SDS011;37438;55.674;13.074;2023-03-01T17:54:36;1.40;;;0.85;;
20232;SDS011;37438;55.674;13.074;2023-03-01T17:57:41;2.25;;;0.88;;
20232;SDS011;37438;55.674;13.074;2023-03-01T18:00:45;3.63;;;1.13;;
20232;SDS011;37438;55.674;13.074;2023-03-01T18:03:50;1.25;;;1.15;;
20232;SDS011;37438;55.674;13.074;2023-03-01T18:06:55;2.92;;;1.33;;
20232;SDS011;37438;55.674;13.074;2023-03-01T18:10:01;2.40;;;1.27;;
20232;SDS011;37438;55.674;13.074;2023-03-01T18:16:11;3.65;;;1.42;;
20232;SDS011;37438;55.674;13.074;2023-03-01T18:19:16;3.22;;;1.90;;
20232;SDS011;37438;55.674;13.074;2023-03-01T18:22:21;2.03;;;1.43;;
20232;SDS011;37438;55.674;13.074;2023-03-01T18:25:25;2.30;;;1.75;;
20232;SDS011;37438;55.674;13.074;2023-03-01T18:28:30;3.67;;;1.70;;
20232;SDS011;37438;55.674;13.074;2023-03-01T18:31:35;4.50;;;1.95;;
20232;SDS011;37438;55.674;13.074;2023-03-01T18:34:40;2.13;;;1.85;;
20232;SDS011;37438;55.674;13.074;2023-03-01T18:37:44;38.83;;;4.55;;
20232;SDS011;37438;55.674;13.074;2023-03-01T18:40:50;3.30;;;2.33;;
20232;SDS011;37438;55.674;13.074;2023-03-01T18:43:55;2.80;;;2.20;;
20232;SDS011;37438;55.674;13.074;2023-03-01T18:46:59;4.05;;;2.38;;
20232;SDS011;37438;55.674;13.074;2023-03-01T18:50:04;4.13;;;2.10;;
20232;SDS011;37438;55.674;13.074;2023-03-01T18:53:09;2.65;;;2.45;;
20232;SDS011;37438;55.674;13.074;2023-03-01T18:56:13;4.55;;;2.75;;
20232;SDS011;37438;55.674;13.074;2023-03-01T19:02:22;5.20;;;2.30;;
20232;SDS011;37438;55.674;13.074;2023-03-01T19:05:27;4.05;;;2.80;;
20232;SDS011;37438;55.674;13.074;2023-03-01T19:08:32;2.53;;;2.30;;
20232;SDS011;37438;55.674;13.074;2023-03-01T19:11:37;3.17;;;2.23;;
20232;SDS011;37438;55.674;13.074;2023-03-01T19:14:41;5.70;;;2.83;;
20232;SDS011;37438;55.674;13.074;2023-03-01T19:17:46;5.50;;;3.10;;
20232;SDS011;37438;55.674;13.074;2023-03-01T19:20:55;4.20;;;3.63;;
20232;SDS011;37438;55.674;13.074;2023-03-01T19:24:06;3.35;;;2.97;;
20232;SDS011;37438;55.674;13.074;2023-03-01T19:27:11;3.55;;;3.25;;
20232;SDS011;37438;55.674;13.074;2023-03-01T19:30:16;3.00;;;2.63;;
20232;SDS011;37438;55.674;13.074;2023-03-01T19:33:20;4.50;;;3.20;;
20232;SDS011;37438;55.674;13.074;2023-03-01T19:36:25;8.10;;;4.57;;
20232;SDS011;37438;55.674;13.074;2023-03-01T19:39:36;6.43;;;3.63;;
20232;SDS011;37438;55.674;13.074;2023-03-01T19:42:41;4.70;;;3.50;;
20232;SDS011;37438;55.674;13.074;2023-03-01T19:45:49;4.57;;;3.85;;
20232;SDS011;37438;55.674;13.074;2023-03-01T19:48:55;6.18;;;4.47;;
20232;SDS011;37438;55.674;13.074;2023-03-01T19:52:02;8.75;;;4.00;;
20232;SDS011;37438;55.674;13.074;2023-03-01T19:55:07;6.22;;;3.97;;
20232;SDS011;37438;55.674;13.074;2023-03-01T19:58:13;6.05;;;4.40;;
20232;SDS011;37438;55.674;13.074;2023-03-01T20:01:20;5.32;;;3.72;;
20232;SDS011;37438;55.674;13.074;2023-03-01T20:04:24;4.95;;;3.67;;
20232;SDS011;37438;55.674;13.074;2023-03-01T20:07:29;4.68;;;3.58;;
20232;SDS011;37438;55.674;13.074;2023-03-01T20:10:33;7.68;;;4.38;;
20232;SDS011;37438;55.674;13.074;2023-03-01T20:13:38;9.10;;;4.23;;
20232;SDS011;37438;55.674;13.074;2023-03-01T20:16:44;5.25;;;4.45;;
20232;SDS011;37438;55.674;13.074;2023-03-01T20:19:49;7.30;;;5.25;;
20232;SDS011;37438;55.674;13.074;2023-03-01T20:22:53;6.75;;;4.50;;